sensor_id;sensor_type;location;lat;lon;timestamp;P1;durP1;ratioP1;P2;durP2;ratioP2
19016;SDS011;9641;51.494;6.670;2023-07-22T00:01:52;12.63;;;8.83;;
19016;SDS011;9641;51.494;6.670;2023-07-22T00:04:19;12.53;;;8.03;;
19016;SDS011;9641;51.494;6.670;2023-07-22T00:06:47;11.50;;;8.73;;
19016;SDS011;9641;51.494;6.670;2023-07-22T00:09:14;10.43;;;8.30;;
19016;SDS011;9641;51.494;6.670;2023-07-22T00:11:41;12.13;;;8.20;;
19016;SDS011;9641;51.494;6.670;2023-07-22T00:14:08;13.50;;;9.07;;
19016;SDS011;9641;51.494;6.670;2023-07-22T00:16:35;11.53;;;8.40;;
19016;SDS011;9641;51.494;6.670;2023-07-22T00:19:02;14.47;;;8.97;;
19016;SDS011;9641;51.494;6.670;2023-07-22T00:21:29;13.43;;;8.50;;
19016;SDS011;9641;51.494;6.670;2023-07-22T00:23:58;12.70;;;8.50;;
19016;SDS011;9641;51.494;6.670;2023-07-22T00:26:24;11.20;;;8.67;;
19016;SDS011;9641;51.494;6.670;2023-07-22T00:28:52;9.97;;;7.90;;
19016;SDS011;9641;51.494;6.670;2023-07-22T00:31:19;11.67;;;8.10;;
19016;SDS011;9641;51.494;6.670;2023-07-22T00:33:46;12.03;;;8.63;;
19016;SDS011;9641;51.494;6.670;2023-07-22T00:36:13;12.23;;;7.97;;
19016;SDS011;9641;51.494;6.670;2023-07-22T00:38:40;15.47;;;7.97;;
19016;SDS011;9641;51.494;6.670;2023-07-22T00:41:09;11.13;;;8.00;;
19016;SDS011;9641;51.494;6.670;2023-07-22T00:43:36;11.67;;;7.07;;
19016;SDS011;9641;51.494;6.670;2023-07-22T00:46:03;11.53;;;8.13;;
19016;SDS011;9641;51.494;6.670;2023-07-22T00:48:30;11.70;;;7.83;;
19016;SDS011;9641;51.494;6.670;2023-07-22T00:50:59;10.83;;;7.87;;
19016;SDS011;9641;51.494;6.670;2023-07-22T00:53:26;11.67;;;7.80;;
19016;SDS011;9641;51.494;6.670;2023-07-22T00:55:53;8.87;;;6.97;;
19016;SDS011;9641;51.494;6.670;2023-07-22T00:58:22;11.20;;;7.70;;
19016;SDS011;9641;51.494;6.670;2023-07-22T01:00:49;9.80;;;7.10;;
19016;SDS011;9641;51.494;6.670;2023-07-22T01:03:17;10.83;;;7.77;;
19016;SDS011;9641;51.494;6.670;2023-07-22T01:05:45;10.03;;;7.00;;
19016;SDS011;9641;51.494;6.670;2023-07-22T01:08:13;11.27;;;7.27;;
19016;SDS011;9641;51.494;6.670;2023-07-22T01:10:40;11.00;;;7.77;;
19016;SDS011;9641;51.494;6.670;2023-07-22T01:13:08;14.10;;;7.73;;
19016;SDS011;9641;51.494;6.670;2023-07-22T01:15:37;11.00;;;7.30;;
19016;SDS011;9641;51.494;6.670;2023-07-22T01:18:04;13.33;;;7.47;;
19016;SDS011;9641;51.494;6.670;2023-07-22T01:20:31;12.27;;;7.67;;
19016;SDS011;9641;51.494;6.670;2023-07-22T01:23:00;10.97;;;7.73;;
19016;SDS011;9641;51.494;6.670;2023-07-22T01:25:27;12.97;;;7.80;;
19016;SDS011;9641;51.494;6.670;2023-07-22T01:27:54;12.03;;;7.77;;
19016;SDS011;9641;51.494;6.670;2023-07-22T01:30:21;10.13;;;7.13;;
19016;SDS011;9641;51.494;6.670;2023-07-22T01:32:49;11.77;;;8.17;;
19016;SDS011;9641;51.494;6.670;2023-07-22T01:35:16;11.20;;;7.50;;
19016;SDS011;9641;51.494;6.670;2023-07-22T01:37:44;10.20;;;6.83;;
19016;SDS011;9641;51.494;6.670;2023-07-22T01:40:13;10.07;;;7.50;;
19016;SDS011;9641;51.494;6.670;2023-07-22T01:42:40;9.87;;;7.17;;
19016;SDS011;9641;51.494;6.670;2023-07-22T01:48:24;9.63;;;6.77;;
19016;SDS011;9641;51.494;6.670;2023-07-22T01:51:11;11.27;;;7.27;;
19016;SDS011;9641;51.494;6.670;2023-07-22T01:57:19;10.80;;;7.00;;
19016;SDS011;9641;51.494;6.670;2023-07-22T01:59:48;10.37;;;7.67;;
19016;SDS011;9641;51.494;6.670;2023-07-22T02:02:15;10.97;;;7.80;;
19016;SDS011;9641;51.494;6.670;2023-07-22T02:04:42;9.53;;;7.23;;
19016;SDS011;9641;51.494;6.670;2023-07-22T02:07:09;15.53;;;8.33;;
19016;SDS011;9641;51.494;6.670;2023-07-22T02:09:36;11.43;;;8.27;;
19016;SDS011;9641;51.494;6.670;2023-07-22T02:12:03;12.47;;;7.57;;
19016;SDS011;9641;51.494;6.670;2023-07-22T02:14:33;8.73;;;7.40;;
19016;SDS011;9641;51.494;6.670;2023-07-22T02:17:02;9.60;;;7.33;;
19016;SDS011;9641;51.494;6.670;2023-07-22T02:19:29;10.60;;;7.33;;
19016;SDS011;9641;51.494;6.670;2023-07-22T02:21:56;10.27;;;7.63;;
19016;SDS011;9641;51.494;6.670;2023-07-22T02:24:23;9.50;;;6.77;;
19016;SDS011;9641;51.494;6.670;2023-07-22T02:26:50;11.03;;;7.50;;
19016;SDS011;9641;51.494;6.670;2023-07-22T02:29:17;10.80;;;7.73;;
19016;SDS011;9641;51.494;6.670;2023-07-22T02:31:46;11.67;;;7.60;;
19016;SDS011;9641;51.494;6.670;2023-07-22T02:34:13;9.53;;;6.90;;
19016;SDS011;9641;51.494;6.670;2023-07-22T02:36:40;9.50;;;7.33;;
19016;SDS011;9641;51.494;6.670;2023-07-22T02:39:07;11.20;;;7.60;;
19016;SDS011;9641;51.494;6.670;2023-07-22T02:41:35;10.00;;;7.70;;
19016;SDS011;9641;51.494;6.670;2023-07-22T02:44:02;9.20;;;7.10;;
19016;SDS011;9641;51.494;6.670;2023-07-22T02:46:29;10.37;;;7.17;;
19016;SDS011;9641;51.494;6.670;2023-07-22T02:48:58;11.03;;;7.53;;
19016;SDS011;9641;51.494;6.670;2023-07-22T02:51:25;10.30;;;7.70;;
19016;SDS011;9641;51.494;6.670;2023-07-22T02:53:52;10.73;;;7.70;;
19016;SDS011;9641;51.494;6.670;2023-07-22T02:56:19;12.97;;;8.20;;
19016;SDS011;9641;51.494;6.670;2023-07-22T02:58:46;9.57;;;7.40;;
19016;SDS011;9641;51.494;6.670;2023-07-22T03:01:13;11.47;;;7.43;;
19016;SDS011;9641;51.494;6.670;2023-07-22T03:03:40;10.00;;;7.53;;
19016;SDS011;9641;51.494;6.670;2023-07-22T03:06:08;10.53;;;7.70;;
19016;SDS011;9641;51.494;6.670;2023-07-22T03:08:35;9.70;;;7.07;;
19016;SDS011;9641;51.494;6.670;2023-07-22T03:11:02;11.13;;;8.13;;
19016;SDS011;9641;51.494;6.670;2023-07-22T03:13:29;9.97;;;7.40;;
19016;SDS011;9641;51.494;6.670;2023-07-22T03:15:57;9.50;;;7.30;;
19016;SDS011;9641;51.494;6.670;2023-07-22T03:18:24;9.17;;;7.57;;
19016;SDS011;9641;51.494;6.670;2023-07-22T03:20:51;10.40;;;7.40;;
19016;SDS011;9641;51.494;6.670;2023-07-22T03:23:20;12.83;;;7.57;;
19016;SDS011;9641;51.494;6.670;2023-07-22T03:25:47;9.53;;;7.50;;
19016;SDS011;9641;51.494;6.670;2023-07-22T03:28:14;8.47;;;6.53;;
19016;SDS011;9641;51.494;6.670;2023-07-22T03:30:42;12.53;;;7.93;;
19016;SDS011;9641;51.494;6.670;2023-07-22T03:33:09;10.47;;;7.90;;
19016;SDS011;9641;51.494;6.670;2023-07-22T03:35:36;10.77;;;6.70;;
19016;SDS011;9641;51.494;6.670;2023-07-22T03:38:03;8.87;;;7.07;;
19016;SDS011;9641;51.494;6.670;2023-07-22T03:40:32;9.07;;;6.87;;
19016;SDS011;9641;51.494;6.670;2023-07-22T03:42:59;11.90;;;7.10;;
19016;SDS011;9641;51.494;6.670;2023-07-22T03:45:26;9.70;;;7.17;;
19016;SDS011;9641;51.494;6.670;2023-07-22T03:47:55;13.87;;;7.80;;
19016;SDS011;9641;51.494;6.670;2023-07-22T03:50:23;10.63;;;7.33;;
19016;SDS011;9641;51.494;6.670;2023-07-22T03:52:50;11.73;;;7.53;;
19016;SDS011;9641;51.494;6.670;2023-07-22T03:55:17;11.10;;;7.63;;
19016;SDS011;9641;51.494;6.670;2023-07-22T03:57:46;9.40;;;6.87;;
19016;SDS011;9641;51.494;6.670;2023-07-22T04:00:13;9.17;;;7.10;;
19016;SDS011;9641;51.494;6.670;2023-07-22T04:02:40;10.93;;;7.40;;
19016;SDS011;9641;51.494;6.670;2023-07-22T04:05:08;11.07;;;8.07;;
19016;SDS011;9641;51.494;6.670;2023-07-22T04:07:35;10.70;;;7.10;;
19016;SDS011;9641;51.494;6.670;2023-07-22T04:10:02;9.23;;;7.37;;
19016;SDS011;9641;51.494;6.670;2023-07-22T04:12:31;11.63;;;7.60;;
19016;SDS011;9641;51.494;6.670;2023-07-22T04:14:59;10.53;;;7.10;;
19016;SDS011;9641;51.494;6.670;2023-07-22T04:17:27;10.83;;;7.07;;
19016;SDS011;9641;51.494;6.670;2023-07-22T04:19:54;13.27;;;8.00;;
19016;SDS011;9641;51.494;6.670;2023-07-22T04:22:21;9.87;;;7.30;;
19016;SDS011;9641;51.494;6.670;2023-07-22T04:24:49;11.77;;;6.93;;
19016;SDS011;9641;51.494;6.670;2023-07-22T04:27:16;10.60;;;6.83;;
19016;SDS011;9641;51.494;6.670;2023-07-22T04:29:45;11.97;;;7.97;;
19016;SDS011;9641;51.494;6.670;2023-07-22T04:32:13;9.67;;;7.20;;
19016;SDS011;9641;51.494;6.670;2023-07-22T04:34:40;11.37;;;8.03;;
19016;SDS011;9641;51.494;6.670;2023-07-22T04:37:07;11.13;;;7.93;;
19016;SDS011;9641;51.494;6.670;2023-07-22T04:39:34;11.63;;;7.93;;
19016;SDS011;9641;51.494;6.670;2023-07-22T04:42:03;14.40;;;8.10;;
19016;SDS011;9641;51.494;6.670;2023-07-22T04:44:30;10.73;;;7.47;;
19016;SDS011;9641;51.494;6.670;2023-07-22T04:46:57;9.57;;;7.27;;
19016;SDS011;9641;51.494;6.670;2023-07-22T04:49:26;12.33;;;7.20;;
19016;SDS011;9641;51.494;6.670;2023-07-22T04:51:53;13.27;;;7.30;;
19016;SDS011;9641;51.494;6.670;2023-07-22T04:54:21;9.20;;;7.27;;
19016;SDS011;9641;51.494;6.670;2023-07-22T04:56:47;11.60;;;7.30;;
19016;SDS011;9641;51.494;6.670;2023-07-22T04:59:14;11.40;;;7.23;;
19016;SDS011;9641;51.494;6.670;2023-07-22T05:01:41;11.47;;;7.57;;
19016;SDS011;9641;51.494;6.670;2023-07-22T05:04:09;11.33;;;7.10;;
19016;SDS011;9641;51.494;6.670;2023-07-22T05:06:37;13.53;;;7.97;;
19016;SDS011;9641;51.494;6.670;2023-07-22T05:09:04;10.03;;;7.13;;
19016;SDS011;9641;51.494;6.670;2023-07-22T05:11:31;8.60;;;6.93;;
19016;SDS011;9641;51.494;6.670;2023-07-22T05:13:58;10.40;;;6.93;;
19016;SDS011;9641;51.494;6.670;2023-07-22T05:16:25;9.60;;;6.60;;
19016;SDS011;9641;51.494;6.670;2023-07-22T05:18:52;8.83;;;6.00;;
19016;SDS011;9641;51.494;6.670;2023-07-22T05:21:19;9.47;;;6.60;;
19016;SDS011;9641;51.494;6.670;2023-07-22T05:23:47;9.00;;;6.80;;
19016;SDS011;9641;51.494;6.670;2023-07-22T05:26:14;10.07;;;7.00;;
19016;SDS011;9641;51.494;6.670;2023-07-22T05:28:41;12.30;;;6.97;;
19016;SDS011;9641;51.494;6.670;2023-07-22T05:31:08;10.40;;;7.27;;
19016;SDS011;9641;51.494;6.670;2023-07-22T05:33:35;10.43;;;6.93;;
19016;SDS011;9641;51.494;6.670;2023-07-22T05:36:03;10.10;;;7.20;;
19016;SDS011;9641;51.494;6.670;2023-07-22T05:38:30;13.00;;;7.40;;
19016;SDS011;9641;51.494;6.670;2023-07-22T05:40:58;10.83;;;6.90;;
19016;SDS011;9641;51.494;6.670;2023-07-22T05:43:26;9.77;;;7.30;;
19016;SDS011;9641;51.494;6.670;2023-07-22T05:45:52;14.20;;;7.57;;
19016;SDS011;9641;51.494;6.670;2023-07-22T05:48:19;14.97;;;7.80;;
19016;SDS011;9641;51.494;6.670;2023-07-22T05:50:47;10.67;;;7.40;;
19016;SDS011;9641;51.494;6.670;2023-07-22T05:53:14;8.93;;;6.93;;
19016;SDS011;9641;51.494;6.670;2023-07-22T05:55:41;13.97;;;7.50;;
19016;SDS011;9641;51.494;6.670;2023-07-22T05:58:16;14.73;;;8.00;;
19016;SDS011;9641;51.494;6.670;2023-07-22T06:00:43;9.33;;;6.70;;
19016;SDS011;9641;51.494;6.670;2023-07-22T06:03:11;12.93;;;8.27;;
19016;SDS011;9641;51.494;6.670;2023-07-22T06:05:38;12.53;;;7.70;;
19016;SDS011;9641;51.494;6.670;2023-07-22T06:08:05;11.17;;;8.20;;
19016;SDS011;9641;51.494;6.670;2023-07-22T06:10:32;11.23;;;7.70;;
19016;SDS011;9641;51.494;6.670;2023-07-22T06:12:59;11.30;;;7.83;;
19016;SDS011;9641;51.494;6.670;2023-07-22T06:15:27;12.70;;;8.53;;
19016;SDS011;9641;51.494;6.670;2023-07-22T06:17:54;13.63;;;8.33;;
19016;SDS011;9641;51.494;6.670;2023-07-22T06:20:21;11.97;;;7.60;;
19016;SDS011;9641;51.494;6.670;2023-07-22T06:22:50;13.30;;;7.80;;
19016;SDS011;9641;51.494;6.670;2023-07-22T06:25:17;11.97;;;8.07;;
19016;SDS011;9641;51.494;6.670;2023-07-22T06:27:44;12.80;;;8.03;;
19016;SDS011;9641;51.494;6.670;2023-07-22T06:30:11;11.50;;;8.30;;
19016;SDS011;9641;51.494;6.670;2023-07-22T06:32:40;15.67;;;8.67;;
19016;SDS011;9641;51.494;6.670;2023-07-22T06:35:07;12.80;;;8.73;;
19016;SDS011;9641;51.494;6.670;2023-07-22T06:37:34;12.90;;;9.00;;
19016;SDS011;9641;51.494;6.670;2023-07-22T06:40:01;15.03;;;8.60;;
19016;SDS011;9641;51.494;6.670;2023-07-22T06:42:29;14.13;;;8.43;;
19016;SDS011;9641;51.494;6.670;2023-07-22T06:44:56;12.03;;;8.37;;
19016;SDS011;9641;51.494;6.670;2023-07-22T06:47:23;12.17;;;7.93;;
19016;SDS011;9641;51.494;6.670;2023-07-22T06:49:51;10.80;;;7.73;;
19016;SDS011;9641;51.494;6.670;2023-07-22T06:52:18;10.50;;;7.77;;
19016;SDS011;9641;51.494;6.670;2023-07-22T06:54:45;13.27;;;8.70;;
19016;SDS011;9641;51.494;6.670;2023-07-22T06:57:12;12.80;;;8.17;;
19016;SDS011;9641;51.494;6.670;2023-07-22T06:59:39;10.97;;;6.83;;
19016;SDS011;9641;51.494;6.670;2023-07-22T07:02:06;10.20;;;7.40;;
19016;SDS011;9641;51.494;6.670;2023-07-22T07:04:34;11.47;;;7.83;;
19016;SDS011;9641;51.494;6.670;2023-07-22T07:07:02;12.23;;;7.63;;
19016;SDS011;9641;51.494;6.670;2023-07-22T07:09:30;12.63;;;8.40;;
19016;SDS011;9641;51.494;6.670;2023-07-22T07:11:57;9.13;;;7.10;;
19016;SDS011;9641;51.494;6.670;2023-07-22T07:14:24;15.47;;;7.97;;
19016;SDS011;9641;51.494;6.670;2023-07-22T07:16:51;10.87;;;7.60;;
19016;SDS011;9641;51.494;6.670;2023-07-22T07:19:18;12.27;;;7.73;;
19016;SDS011;9641;51.494;6.670;2023-07-22T07:21:45;11.23;;;6.80;;
19016;SDS011;9641;51.494;6.670;2023-07-22T07:24:13;10.20;;;7.83;;
19016;SDS011;9641;51.494;6.670;2023-07-22T07:26:40;14.10;;;7.43;;
19016;SDS011;9641;51.494;6.670;2023-07-22T07:29:07;13.27;;;7.97;;
19016;SDS011;9641;51.494;6.670;2023-07-22T07:31:34;10.77;;;7.67;;
19016;SDS011;9641;51.494;6.670;2023-07-22T07:34:01;11.63;;;8.10;;
19016;SDS011;9641;51.494;6.670;2023-07-22T07:36:28;10.03;;;7.60;;
19016;SDS011;9641;51.494;6.670;2023-07-22T07:38:55;12.27;;;8.07;;
19016;SDS011;9641;51.494;6.670;2023-07-22T07:41:24;17.67;;;8.23;;
19016;SDS011;9641;51.494;6.670;2023-07-22T07:43:51;8.90;;;6.87;;
19016;SDS011;9641;51.494;6.670;2023-07-22T07:46:19;13.57;;;8.30;;
19016;SDS011;9641;51.494;6.670;2023-07-22T07:48:47;16.53;;;7.83;;
19016;SDS011;9641;51.494;6.670;2023-07-22T07:51:16;11.37;;;7.70;;
19016;SDS011;9641;51.494;6.670;2023-07-22T07:53:44;11.33;;;6.80;;
19016;SDS011;9641;51.494;6.670;2023-07-22T07:56:15;11.60;;;7.90;;
19016;SDS011;9641;51.494;6.670;2023-07-22T07:58:44;16.40;;;9.07;;
19016;SDS011;9641;51.494;6.670;2023-07-22T08:01:12;80.53;;;25.20;;
19016;SDS011;9641;51.494;6.670;2023-07-22T08:03:40;18.00;;;7.93;;
19016;SDS011;9641;51.494;6.670;2023-07-22T08:06:07;15.03;;;8.50;;
19016;SDS011;9641;51.494;6.670;2023-07-22T08:08:35;11.00;;;7.57;;
19016;SDS011;9641;51.494;6.670;2023-07-22T08:11:02;9.67;;;6.83;;
19016;SDS011;9641;51.494;6.670;2023-07-22T08:13:30;13.33;;;7.37;;
19016;SDS011;9641;51.494;6.670;2023-07-22T08:16:00;10.83;;;6.87;;
19016;SDS011;9641;51.494;6.670;2023-07-22T08:18:28;10.37;;;7.00;;
19016;SDS011;9641;51.494;6.670;2023-07-22T08:20:55;8.63;;;6.57;;
19016;SDS011;9641;51.494;6.670;2023-07-22T08:23:22;10.43;;;6.53;;
19016;SDS011;9641;51.494;6.670;2023-07-22T08:25:50;11.30;;;6.80;;
19016;SDS011;9641;51.494;6.670;2023-07-22T08:28:17;12.00;;;6.38;;
19016;SDS011;9641;51.494;6.670;2023-07-22T08:30:44;8.95;;;5.97;;
19016;SDS011;9641;51.494;6.670;2023-07-22T08:33:14;10.18;;;6.03;;
19016;SDS011;9641;51.494;6.670;2023-07-22T08:35:42;9.07;;;6.47;;
19016;SDS011;9641;51.494;6.670;2023-07-22T08:38:10;7.75;;;6.15;;
19016;SDS011;9641;51.494;6.670;2023-07-22T08:40:37;8.40;;;5.43;;
19016;SDS011;9641;51.494;6.670;2023-07-22T08:46:22;6.97;;;5.60;;
19016;SDS011;9641;51.494;6.670;2023-07-22T08:49:00;7.80;;;6.25;;
19016;SDS011;9641;51.494;6.670;2023-07-22T08:51:32;6.82;;;5.60;;
19016;SDS011;9641;51.494;6.670;2023-07-22T08:54:02;8.10;;;5.35;;
19016;SDS011;9641;51.494;6.670;2023-07-22T08:56:29;8.52;;;5.60;;
19016;SDS011;9641;51.494;6.670;2023-07-22T08:58:57;8.63;;;5.28;;
19016;SDS011;9641;51.494;6.670;2023-07-22T09:01:39;7.90;;;5.47;;
19016;SDS011;9641;51.494;6.670;2023-07-22T09:04:08;7.97;;;5.68;;
19016;SDS011;9641;51.494;6.670;2023-07-22T09:06:50;6.13;;;5.20;;
19016;SDS011;9641;51.494;6.670;2023-07-22T09:09:17;8.02;;;5.50;;
19016;SDS011;9641;51.494;6.670;2023-07-22T09:11:45;6.30;;;4.65;;
19016;SDS011;9641;51.494;6.670;2023-07-22T09:14:19;7.97;;;4.82;;
19016;SDS011;9641;51.494;6.670;2023-07-22T09:16:46;8.57;;;4.72;;
19016;SDS011;9641;51.494;6.670;2023-07-22T09:19:14;6.15;;;4.97;;
19016;SDS011;9641;51.494;6.670;2023-07-22T09:21:42;7.63;;;5.25;;
19016;SDS011;9641;51.494;6.670;2023-07-22T09:24:22;7.68;;;4.65;;
19016;SDS011;9641;51.494;6.670;2023-07-22T09:26:50;5.72;;;4.70;;
19016;SDS011;9641;51.494;6.670;2023-07-22T09:29:17;8.43;;;4.53;;
19016;SDS011;9641;51.494;6.670;2023-07-22T09:31:48;11.35;;;5.57;;
19016;SDS011;9641;51.494;6.670;2023-07-22T09:34:17;5.20;;;4.63;;
19016;SDS011;9641;51.494;6.670;2023-07-22T09:36:54;6.30;;;4.22;;
19016;SDS011;9641;51.494;6.670;2023-07-22T09:39:22;6.70;;;3.85;;
19016;SDS011;9641;51.494;6.670;2023-07-22T09:41:49;6.13;;;3.92;;
19016;SDS011;9641;51.494;6.670;2023-07-22T09:44:18;4.10;;;3.70;;
19016;SDS011;9641;51.494;6.670;2023-07-22T09:46:46;5.70;;;3.90;;
19016;SDS011;9641;51.494;6.670;2023-07-22T09:49:15;6.63;;;4.40;;
19016;SDS011;9641;51.494;6.670;2023-07-22T09:51:45;6.43;;;4.22;;
19016;SDS011;9641;51.494;6.670;2023-07-22T09:54:12;6.15;;;4.47;;
19016;SDS011;9641;51.494;6.670;2023-07-22T09:56:43;7.55;;;4.13;;
19016;SDS011;9641;51.494;6.670;2023-07-22T09:59:11;4.25;;;3.80;;
19016;SDS011;9641;51.494;6.670;2023-07-22T10:01:38;6.63;;;3.72;;
19016;SDS011;9641;51.494;6.670;2023-07-22T10:04:07;4.95;;;4.13;;
19016;SDS011;9641;51.494;6.670;2023-07-22T10:06:38;4.80;;;3.53;;
19016;SDS011;9641;51.494;6.670;2023-07-22T10:09:08;5.05;;;3.35;;
19016;SDS011;9641;51.494;6.670;2023-07-22T10:11:37;3.50;;;3.20;;
19016;SDS011;9641;51.494;6.670;2023-07-22T10:14:14;3.90;;;3.33;;
19016;SDS011;9641;51.494;6.670;2023-07-22T10:16:51;4.93;;;3.60;;
19016;SDS011;9641;51.494;6.670;2023-07-22T10:19:18;5.47;;;3.67;;
19016;SDS011;9641;51.494;6.670;2023-07-22T10:21:48;4.20;;;3.30;;
19016;SDS011;9641;51.494;6.670;2023-07-22T10:24:15;3.78;;;3.47;;
19016;SDS011;9641;51.494;6.670;2023-07-22T10:26:42;5.75;;;3.33;;
19016;SDS011;9641;51.494;6.670;2023-07-22T10:29:10;5.35;;;3.22;;
19016;SDS011;9641;51.494;6.670;2023-07-22T10:31:38;4.15;;;3.58;;
19016;SDS011;9641;51.494;6.670;2023-07-22T10:34:05;4.00;;;3.13;;
19016;SDS011;9641;51.494;6.670;2023-07-22T10:36:33;4.72;;;3.40;;
19016;SDS011;9641;51.494;6.670;2023-07-22T10:39:03;3.50;;;3.20;;
19016;SDS011;9641;51.494;6.670;2023-07-22T10:41:32;4.93;;;3.20;;
19016;SDS011;9641;51.494;6.670;2023-07-22T10:44:04;2.97;;;2.67;;
19016;SDS011;9641;51.494;6.670;2023-07-22T10:46:38;3.35;;;2.80;;
19016;SDS011;9641;51.494;6.670;2023-07-22T10:49:09;3.80;;;3.00;;
19016;SDS011;9641;51.494;6.670;2023-07-22T10:51:38;5.47;;;3.30;;
19016;SDS011;9641;51.494;6.670;2023-07-22T10:54:11;3.83;;;2.80;;
19016;SDS011;9641;51.494;6.670;2023-07-22T10:56:40;3.40;;;3.00;;
19016;SDS011;9641;51.494;6.670;2023-07-22T10:59:09;6.35;;;2.83;;
19016;SDS011;9641;51.494;6.670;2023-07-22T11:01:37;9.23;;;2.83;;
19016;SDS011;9641;51.494;6.670;2023-07-22T11:06:56;6.05;;;2.50;;
19016;SDS011;9641;51.494;6.670;2023-07-22T11:09:36;4.78;;;2.45;;
19016;SDS011;9641;51.494;6.670;2023-07-22T11:12:05;4.15;;;2.72;;
19016;SDS011;9641;51.494;6.670;2023-07-22T11:14:34;6.82;;;2.67;;
19016;SDS011;9641;51.494;6.670;2023-07-22T11:17:04;6.45;;;3.25;;
19016;SDS011;9641;51.494;6.670;2023-07-22T11:19:33;3.40;;;2.35;;
19016;SDS011;9641;51.494;6.670;2023-07-22T11:22:00;2.35;;;2.15;;
19016;SDS011;9641;51.494;6.670;2023-07-22T11:24:28;3.88;;;2.40;;
19016;SDS011;9641;51.494;6.670;2023-07-22T11:26:57;4.82;;;2.33;;
19016;SDS011;9641;51.494;6.670;2023-07-22T11:29:24;3.85;;;2.55;;
19016;SDS011;9641;51.494;6.670;2023-07-22T11:31:51;4.55;;;2.33;;
19016;SDS011;9641;51.494;6.670;2023-07-22T11:34:19;3.80;;;2.70;;
19016;SDS011;9641;51.494;6.670;2023-07-22T11:36:49;2.95;;;2.60;;
19016;SDS011;9641;51.494;6.670;2023-07-22T11:39:17;3.83;;;2.70;;
19016;SDS011;9641;51.494;6.670;2023-07-22T11:41:48;3.00;;;2.70;;
19016;SDS011;9641;51.494;6.670;2023-07-22T11:44:18;3.05;;;2.40;;
19016;SDS011;9641;51.494;6.670;2023-07-22T11:46:51;3.22;;;2.42;;
19016;SDS011;9641;51.494;6.670;2023-07-22T11:49:22;3.67;;;2.33;;
19016;SDS011;9641;51.494;6.670;2023-07-22T11:51:56;3.00;;;2.35;;
19016;SDS011;9641;51.494;6.670;2023-07-22T11:54:25;2.80;;;2.50;;
19016;SDS011;9641;51.494;6.670;2023-07-22T11:56:52;2.97;;;2.60;;
19016;SDS011;9641;51.494;6.670;2023-07-22T11:59:36;3.03;;;2.60;;
19016;SDS011;9641;51.494;6.670;2023-07-22T12:02:05;2.83;;;2.28;;
19016;SDS011;9641;51.494;6.670;2023-07-22T12:04:32;2.60;;;2.30;;
19016;SDS011;9641;51.494;6.670;2023-07-22T12:07:00;1.90;;;1.80;;
19016;SDS011;9641;51.494;6.670;2023-07-22T12:09:29;2.40;;;2.20;;
19016;SDS011;9641;51.494;6.670;2023-07-22T12:11:56;3.28;;;2.25;;
19016;SDS011;9641;51.494;6.670;2023-07-22T12:14:24;5.32;;;2.30;;
19016;SDS011;9641;51.494;6.670;2023-07-22T12:17:00;4.30;;;2.00;;
19016;SDS011;9641;51.494;6.670;2023-07-22T12:19:28;4.78;;;2.10;;
19016;SDS011;9641;51.494;6.670;2023-07-22T12:21:55;4.65;;;2.38;;
19016;SDS011;9641;51.494;6.670;2023-07-22T12:24:22;3.58;;;2.40;;
19016;SDS011;9641;51.494;6.670;2023-07-22T12:26:49;2.20;;;2.00;;
19016;SDS011;9641;51.494;6.670;2023-07-22T12:29:16;3.05;;;2.33;;
19016;SDS011;9641;51.494;6.670;2023-07-22T12:31:43;4.25;;;2.53;;
19016;SDS011;9641;51.494;6.670;2023-07-22T12:34:12;4.20;;;2.17;;
19016;SDS011;9641;51.494;6.670;2023-07-22T12:36:39;3.53;;;2.40;;
19016;SDS011;9641;51.494;6.670;2023-07-22T12:39:06;2.83;;;2.33;;
19016;SDS011;9641;51.494;6.670;2023-07-22T12:41:33;2.15;;;1.88;;
19016;SDS011;9641;51.494;6.670;2023-07-22T12:44:00;2.47;;;2.22;;
19016;SDS011;9641;51.494;6.670;2023-07-22T12:46:27;4.43;;;2.65;;
19016;SDS011;9641;51.494;6.670;2023-07-22T12:48:53;3.03;;;2.08;;
19016;SDS011;9641;51.494;6.670;2023-07-22T12:51:21;2.95;;;2.13;;
19016;SDS011;9641;51.494;6.670;2023-07-22T12:53:48;3.03;;;2.40;;
19016;SDS011;9641;51.494;6.670;2023-07-22T12:56:15;3.30;;;2.15;;
19016;SDS011;9641;51.494;6.670;2023-07-22T12:58:42;2.63;;;2.08;;
19016;SDS011;9641;51.494;6.670;2023-07-22T13:01:09;2.78;;;2.10;;
19016;SDS011;9641;51.494;6.670;2023-07-22T13:03:36;2.90;;;2.08;;
19016;SDS011;9641;51.494;6.670;2023-07-22T13:06:03;2.40;;;2.08;;
19016;SDS011;9641;51.494;6.670;2023-07-22T13:08:32;2.75;;;2.08;;
19016;SDS011;9641;51.494;6.670;2023-07-22T13:10:58;4.40;;;2.08;;
19016;SDS011;9641;51.494;6.670;2023-07-22T13:13:25;3.72;;;2.35;;
19016;SDS011;9641;51.494;6.670;2023-07-22T13:15:52;2.47;;;1.98;;
19016;SDS011;9641;51.494;6.670;2023-07-22T13:18:19;2.30;;;1.98;;
19016;SDS011;9641;51.494;6.670;2023-07-22T13:20:46;2.80;;;1.80;;
19016;SDS011;9641;51.494;6.670;2023-07-22T13:23:13;2.67;;;1.80;;
19016;SDS011;9641;51.494;6.670;2023-07-22T13:25:41;3.38;;;2.08;;
19016;SDS011;9641;51.494;6.670;2023-07-22T13:28:08;2.10;;;2.00;;
19016;SDS011;9641;51.494;6.670;2023-07-22T13:30:35;2.53;;;1.90;;
19016;SDS011;9641;51.494;6.670;2023-07-22T13:33:01;2.60;;;2.40;;
19016;SDS011;9641;51.494;6.670;2023-07-22T13:35:28;2.30;;;2.10;;
19016;SDS011;9641;51.494;6.670;2023-07-22T13:37:55;2.55;;;2.28;;
19016;SDS011;9641;51.494;6.670;2023-07-22T13:40:22;3.55;;;2.63;;
19016;SDS011;9641;51.494;6.670;2023-07-22T13:42:50;3.17;;;2.17;;
19016;SDS011;9641;51.494;6.670;2023-07-22T13:45:17;3.85;;;2.00;;
19016;SDS011;9641;51.494;6.670;2023-07-22T13:47:44;3.40;;;2.30;;
19016;SDS011;9641;51.494;6.670;2023-07-22T13:50:11;3.38;;;2.10;;
19016;SDS011;9641;51.494;6.670;2023-07-22T13:52:38;3.65;;;2.17;;
19016;SDS011;9641;51.494;6.670;2023-07-22T13:55:06;3.47;;;2.50;;
19016;SDS011;9641;51.494;6.670;2023-07-22T13:57:34;2.63;;;2.25;;
19016;SDS011;9641;51.494;6.670;2023-07-22T14:00:02;3.35;;;2.08;;
19016;SDS011;9641;51.494;6.670;2023-07-22T14:02:37;2.95;;;2.08;;
19016;SDS011;9641;51.494;6.670;2023-07-22T14:05:05;4.47;;;2.33;;
19016;SDS011;9641;51.494;6.670;2023-07-22T14:07:32;2.20;;;2.00;;
19016;SDS011;9641;51.494;6.670;2023-07-22T14:10:01;2.88;;;1.88;;
19016;SDS011;9641;51.494;6.670;2023-07-22T14:12:29;2.55;;;2.00;;
19016;SDS011;9641;51.494;6.670;2023-07-22T14:14:56;2.17;;;2.00;;
19016;SDS011;9641;51.494;6.670;2023-07-22T14:17:24;2.60;;;2.20;;
19016;SDS011;9641;51.494;6.670;2023-07-22T14:19:51;2.55;;;1.85;;
19016;SDS011;9641;51.494;6.670;2023-07-22T14:22:18;2.45;;;2.25;;
19016;SDS011;9641;51.494;6.670;2023-07-22T14:24:45;2.63;;;2.38;;
19016;SDS011;9641;51.494;6.670;2023-07-22T14:27:12;4.80;;;2.38;;
19016;SDS011;9641;51.494;6.670;2023-07-22T14:29:39;5.15;;;2.80;;
19016;SDS011;9641;51.494;6.670;2023-07-22T14:32:06;3.58;;;2.28;;
19016;SDS011;9641;51.494;6.670;2023-07-22T14:34:35;3.03;;;2.35;;
19016;SDS011;9641;51.494;6.670;2023-07-22T14:37:02;2.92;;;2.30;;
19016;SDS011;9641;51.494;6.670;2023-07-22T14:39:30;5.60;;;4.47;;
19016;SDS011;9641;51.494;6.670;2023-07-22T14:41:57;3.60;;;3.30;;
19016;SDS011;9641;51.494;6.670;2023-07-22T14:44:23;2.45;;;2.20;;
19016;SDS011;9641;51.494;6.670;2023-07-22T14:46:50;3.72;;;2.42;;
19016;SDS011;9641;51.494;6.670;2023-07-22T14:49:17;2.42;;;2.00;;
19016;SDS011;9641;51.494;6.670;2023-07-22T14:51:45;4.30;;;2.40;;
19016;SDS011;9641;51.494;6.670;2023-07-22T14:54:12;2.13;;;1.92;;
19016;SDS011;9641;51.494;6.670;2023-07-22T14:56:39;2.47;;;2.22;;
19016;SDS011;9641;51.494;6.670;2023-07-22T14:59:06;2.60;;;2.40;;
19016;SDS011;9641;51.494;6.670;2023-07-22T15:01:36;2.35;;;2.05;;
19016;SDS011;9641;51.494;6.670;2023-07-22T15:04:03;3.08;;;2.17;;
19016;SDS011;9641;51.494;6.670;2023-07-22T15:06:31;2.13;;;1.98;;
19016;SDS011;9641;51.494;6.670;2023-07-22T15:09:00;2.45;;;2.25;;
19016;SDS011;9641;51.494;6.670;2023-07-22T15:11:28;3.40;;;1.90;;
19016;SDS011;9641;51.494;6.670;2023-07-22T15:13:56;4.57;;;2.10;;